Time;durP1;ratioP1;P1;durP2;ratioP2;P2;SDS_P1;SDS_P2;PMS_P1;PMS_P2;Temp;Humidity;BMP_temperature;BMP_pressure;BME280_temperature;BME280_humidity;BME280_pressure;Samples;Min_cycle;Max_cycle;Signal;HPM_P1;HPM_P2
2022/03/30 00:00:30;;;;;;;24.75;14.95;;;;;;;13.03;45.31;100696.38;5072269;28;20045;-65
2022/03/30 00:02:57;;;;;;;24.60;14.93;;;;;;;12.98;45.42;100688.69;5073077;28;20048;-65
2022/03/30 00:05:23;;;;;;;28.50;15.63;;;;;;;12.93;45.19;100684.66;5073487;28;20041;-65
2022/03/30 00:07:54;;;;;;;29.58;14.48;;;;;;;12.86;45.39;100689.69;5072798;28;20405;-65
2022/03/30 00:10:20;;;;;;;26.13;14.32;;;;;;;12.80;45.26;100686.66;5073275;28;20033;-65
2022/03/30 00:12:47;;;;;;;28.55;14.48;;;;;;;12.70;45.39;100684.72;5073269;28;20405;-65
2022/03/30 00:15:15;;;;;;;26.90;14.93;;;;;;;12.62;45.37;100686.31;5073254;28;20036;-64
2022/03/30 00:17:43;;;;;;;28.65;15.63;;;;;;;12.53;45.59;100684.38;5073326;28;20109;-65
2022/03/30 00:20:10;;;;;;;28.88;15.35;;;;;;;12.46;45.42;100689.41;5073172;28;20051;-65
2022/03/30 00:22:40;;;;;;;29.77;15.63;;;;;;;12.40;45.51;100684.53;5055280;28;20140;-65
2022/03/30 00:25:09;;;;;;;30.92;16.80;;;;;;;12.35;45.54;100676.81;5073220;28;20119;-66
2022/03/30 00:27:36;;;;;;;27.30;15.23;;;;;;;12.30;45.63;100681.72;5072998;28;20051;-65
2022/03/30 00:30:04;;;;;;;28.08;15.45;;;;;;;12.23;45.61;100682.34;5072658;28;20037;-65
2022/03/30 00:32:32;;;;;;;30.38;16.98;;;;;;;12.17;45.74;100680.13;5072933;28;20055;-64
2022/03/30 00:34:59;;;;;;;33.20;16.52;;;;;;;12.09;45.76;100676.22;5073071;28;20032;-65
2022/03/30 00:37:25;;;;;;;30.65;16.58;;;;;;;12.01;45.95;100684.06;5072571;28;20075;-65
2022/03/30 00:39:53;;;;;;;34.92;16.25;;;;;;;11.96;45.96;100680.88;5072628;28;20036;-65
2022/03/30 00:42:23;;;;;;;26.08;14.85;;;;;;;11.91;45.89;100672.31;5072542;28;20048;-65
2022/03/30 00:44:51;;;;;;;30.92;17.05;;;;;;;11.88;46.40;100677.03;5072689;28;20041;-65
2022/03/30 00:47:20;;;;;;;31.42;16.63;;;;;;;11.84;46.30;100668.34;5072731;28;20037;-65
2022/03/30 00:49:47;;;;;;;30.40;15.52;;;;;;;11.84;46.28;100662.13;5072887;28;20068;-64
2022/03/30 00:52:14;;;;;;;30.52;15.52;;;;;;;11.81;46.33;100660.53;5071198;28;20048;-65
2022/03/30 00:54:43;;;;;;;29.40;15.73;;;;;;;11.78;46.50;100671.53;5072790;28;20064;-64
2022/03/30 00:57:11;;;;;;;27.55;16.55;;;;;;;11.72;46.40;100663.91;5072602;28;20044;-65
2022/03/30 00:59:38;;;;;;;25.30;14.60;;;;;;;11.66;46.53;100667.09;5054264;28;20139;-65
2022/03/30 01:02:05;;;;;;;30.00;15.93;;;;;;;11.62;46.67;100661.09;5072326;28;20032;-65
2022/03/30 01:04:33;;;;;;;29.88;15.35;;;;;;;11.60;46.68;100667.56;5071385;28;20054;-66
2022/03/30 01:07:00;;;;;;;30.73;16.65;;;;;;;11.57;46.77;100657.06;5072531;28;20043;-65
2022/03/30 01:09:27;;;;;;;32.17;16.17;;;;;;;11.56;46.80;100655.34;5072302;28;20044;-64
2022/03/30 01:11:54;;;;;;;30.92;15.50;;;;;;;11.52;46.77;100656.56;5071850;28;20048;-65
2022/03/30 01:14:22;;;;;;;28.08;16.05;;;;;;;11.48;46.95;100655.09;5072550;28;20044;-65
2022/03/30 01:16:50;;;;;;;26.08;15.82;;;;;;;11.44;47.16;100652.63;5072432;28;20029;-65
2022/03/30 01:19:17;;;;;;;26.45;15.48;;;;;;;11.38;46.96;100645.03;5072495;28;20045;-64
2022/03/30 01:21:45;;;;;;;28.70;16.23;;;;;;;11.31;47.01;100643.81;5072750;28;20040;-65
2022/03/30 01:24:13;;;;;;;26.45;15.57;;;;;;;11.29;47.10;100644.91;5076477;28;20039;-64
2022/03/30 01:26:41;;;;;;;32.20;16.20;;;;;;;11.24;47.18;100661.38;5058796;28;20040;-64
2022/03/30 01:34:43;;;;;;;28.85;16.15;;;;;;;11.06;47.16;100646.63;5077576;28;20124;-65
2022/03/30 01:37:12;;;;;;;26.20;15.82;;;;;;;10.99;47.46;100642.69;5075792;28;20052;-65
2022/03/30 01:39:39;;;;;;;27.58;17.02;;;;;;;10.95;47.32;100642.06;5075695;28;20055;-65
2022/03/30 01:42:06;;;;;;;33.53;17.52;;;;;;;10.92;47.29;100641.44;5082586;28;20036;-64
2022/03/30 01:44:34;;;;;;;31.45;16.73;;;;;;;10.86;47.58;100633.84;5076322;28;20037;-64
2022/03/30 01:47:01;;;;;;;28.58;16.38;;;;;;;10.80;47.57;100632.50;5075928;28;20062;-65
2022/03/30 01:49:27;;;;;;;29.88;16.40;;;;;;;10.76;47.68;100637.25;5075461;28;20037;-64
2022/03/30 01:51:58;;;;;;;34.45;16.48;;;;;;;10.71;47.67;100630.50;5056003;28;20127;-64
2022/03/30 01:54:26;;;;;;;30.00;17.08;;;;;;;10.68;47.66;100628.91;5061408;28;20048;-64
2022/03/30 01:56:55;;;;;;;28.05;15.88;;;;;;;10.68;47.78;100633.41;5075694;28;20041;-64
2022/03/30 01:59:22;;;;;;;26.52;14.85;;;;;;;10.67;47.75;100627.19;5075403;28;20500;-64
2022/03/30 02:01:49;;;;;;;30.33;16.65;;;;;;;10.63;47.70;100619.47;5075281;28;20048;-64
2022/03/30 02:04:16;;;;;;;29.13;16.95;;;;;;;10.60;47.87;100620.56;5075559;28;20048;-65
2022/03/30 02:06:42;;;;;;;31.70;16.20;;;;;;;10.57;47.83;100612.72;5075746;28;20379;-64
2022/03/30 02:09:12;;;;;;;29.35;16.33;;;;;;;10.55;47.94;100617.38;5075097;28;20032;-65
2022/03/30 02:11:39;;;;;;;41.70;17.90;;;;;;;10.51;47.94;100607.81;5075029;28;20072;-64
2022/03/30 02:14:06;;;;;;;31.63;16.30;;;;;;;10.48;47.97;100610.72;5075081;28;20048;-64
2022/03/30 02:16:32;;;;;;;34.85;16.77;;;;;;;10.48;48.06;100616.09;5075328;28;20037;-65
2022/03/30 02:18:59;;;;;;;28.42;16.55;;;;;;;10.47;48.15;100615.25;5075110;28;20040;-64
2022/03/30 02:21:25;;;;;;;30.70;16.27;;;;;;;10.46;48.32;100601.94;5073745;28;20056;-64
2022/03/30 02:23:52;;;;;;;32.67;17.40;;;;;;;10.45;48.35;100600.22;5074921;28;20556;-64
2022/03/30 02:26:19;;;;;;;28.83;16.60;;;;;;;10.44;48.23;100593.13;5075274;28;20401;-64
2022/03/30 02:28:51;;;;;;;33.22;17.25;;;;;;;10.43;48.26;100596.78;5075162;28;20033;-65
2022/03/30 02:31:20;;;;;;;30.13;16.02;;;;;;;10.41;48.41;100594.22;5074723;28;20569;-64
2022/03/30 02:33:47;;;;;;;36.53;17.48;;;;;;;10.39;48.37;100589.91;5073854;28;20420;-64
2022/03/30 02:36:14;;;;;;;29.38;15.50;;;;;;;10.39;48.41;100589.91;5074454;28;20036;-64
2022/03/30 02:38:42;;;;;;;29.80;16.20;;;;;;;10.38;48.50;100583.69;5074500;28;20048;-64
2022/03/30 02:41:10;;;;;;;33.00;16.48;;;;;;;10.39;48.63;100579.16;5056762;28;20393;-64
2022/03/30 02:43:37;;;;;;;31.30;17.27;;;;;;;10.38;48.47;100581.00;5074524;28;20079;-64
2022/03/30 02:46:04;;;;;;;36.70;17.35;;;;;;;10.38;48.53;100577.47;5071099;28;20398;-64
2022/03/30 02:48:33;;;;;;;29.52;17.23;;;;;;;10.38;48.62;100575.63;5074413;28;20116;-64
2022/03/30 02:51:02;;;;;;;30.92;17.02;;;;;;;10.39;48.69;100576.47;5074076;28;20123;-64
2022/03/30 02:53:29;;;;;;;35.90;17.00;;;;;;;10.38;48.68;100570.25;5039635;28;20067;-65
2022/03/30 02:55:56;;;;;;;30.48;17.48;;;;;;;10.36;48.51;100563.28;5073230;28;20378;-65
2022/03/30 02:58:23;;;;;;;31.58;16.80;;;;;;;10.34;48.76;100570.59;5074203;28;20047;-65
2022/03/30 03:00:50;;;;;;;34.47;16.83;;;;;;;10.33;48.75;100569.75;5073927;28;20032;-65
2022/03/30 03:03:16;;;;;;;32.80;17.75;;;;;;;10.33;48.67;100556.31;5074387;28;20090;-64
2022/03/30 03:05:43;;;;;;;29.60;16.65;;;;;;;10.31;48.78;100558.28;5073784;28;20119;-65
2022/03/30 03:08:11;;;;;;;33.00;17.00;;;;;;;10.30;48.74;100561.06;5073947;28;20045;-65
2022/03/30 03:10:40;;;;;;;30.63;16.95;;;;;;;10.28;48.89;100560.31;5074281;28;20040;-64
2022/03/30 03:13:07;;;;;;;36.45;17.60;;;;;;;10.27;48.91;100563.97;5039044;28;20417;-64
2022/03/30 03:15:36;;;;;;;35.60;17.15;;;;;;;10.25;48.88;100556.03;5073508;28;20041;-65
2022/03/30 03:18:04;;;;;;;35.30;17.05;;;;;;;10.23;48.98;100552.63;5073879;28;20078;-65
2022/03/30 03:20:32;;;;;;;29.55;17.92;;;;;;;10.20;48.88;100555.53;5073625;28;20051;-65
2022/03/30 03:23:03;;;;;;;26.30;15.93;;;;;;;10.18;49.00;100560.13;5072787;28;20458;-65
2022/03/30 03:25:32;;;;;;;32.83;17.15;;;;;;;10.17;48.93;100551.22;5074024;28;20044;-65
2022/03/30 03:28:00;;;;;;;29.55;16.20;;;;;;;10.16;49.19;100556.69;5073309;28;20500;-65
2022/03/30 03:30:28;;;;;;;32.22;17.33;;;;;;;10.14;49.06;100551.44;5056105;28;20052;-65
2022/03/30 03:32:56;;;;;;;27.67;16.38;;;;;;;10.12;49.08;100549.84;5073226;28;20079;-65
2022/03/30 03:35:23;;;;;;;32.85;17.75;;;;;;;10.09;49.19;100553.59;5073793;28;20037;-65
2022/03/30 03:37:49;;;;;;;29.88;17.67;;;;;;;10.08;49.33;100546.53;5073481;28;20037;-64
2022/03/30 03:40:17;;;;;;;35.35;17.15;;;;;;;10.07;49.28;100546.63;5073912;28;20040;-65
2022/03/30 03:42:44;;;;;;;34.65;17.10;;;;;;;10.06;49.26;100535.06;5072876;28;20090;-64
2022/03/30 03:45:12;;;;;;;30.52;17.13;;;;;;;10.06;49.29;100545.78;5071853;28;20436;-65
2022/03/30 03:47:38;;;;;;;41.08;17.58;;;;;;;10.07;49.33;100538.59;5055086;28;20044;-64
2022/03/30 03:50:05;;;;;;;30.90;17.20;;;;;;;10.04;49.25;100542.34;5073300;28;20111;-65
2022/03/30 03:52:32;;;;;;;31.40;17.02;;;;;;;10.02;49.31;100535.41;5073087;28;20503;-64
2022/03/30 03:54:58;;;;;;;32.70;18.38;;;;;;;9.99;49.36;100535.63;5073365;28;20529;-65
2022/03/30 03:57:25;;;;;;;33.83;17.88;;;;;;;9.96;49.55;100535.84;5073064;28;20040;-64
2022/03/30 03:59:52;;;;;;;34.30;17.60;;;;;;;9.94;49.22;100535.09;5071840;28;20044;-64
2022/03/30 04:02:19;;;;;;;39.35;19.38;;;;;;;9.90;49.23;100530.94;5072953;28;20128;-65
2022/03/30 04:04:46;;;;;;;36.22;18.13;;;;;;;9.86;49.41;100530.28;5055139;28;20524;-65
2022/03/30 04:07:12;;;;;;;32.17;16.55;;;;;;;9.82;49.44;100534.16;5073156;28;20040;-65
2022/03/30 04:09:39;;;;;;;34.85;18.02;;;;;;;9.80;49.37;100520.00;5073226;28;20048;-64
2022/03/30 04:12:06;;;;;;;32.80;17.55;;;;;;;9.77;49.48;100515.72;5073290;28;20054;-64
2022/03/30 04:14:33;;;;;;;35.72;17.98;;;;;;;9.74;49.48;100521.31;5073106;28;20363;-64
2022/03/30 04:16:59;;;;;;;34.30;18.00;;;;;;;9.72;49.53;100520.56;5073278;28;20060;-64
2022/03/30 04:19:26;;;;;;;35.95;17.67;;;;;;;9.70;49.49;100511.78;5055258;28;20076;-65
2022/03/30 04:21:52;;;;;;;34.60;17.08;;;;;;;9.68;49.51;100510.19;5073150;28;20057;-64
2022/03/30 04:24:19;;;;;;;35.33;17.73;;;;;;;9.66;49.55;100512.97;5072646;28;20513;-64
2022/03/30 04:26:45;;;;;;;36.70;18.42;;;;;;;9.64;49.65;100522.91;5055281;28;20052;-63
2022/03/30 04:29:12;;;;;;;31.95;17.80;;;;;;;9.61;49.64;100516.94;5072814;28;20044;-63
2022/03/30 04:31:39;;;;;;;36.33;18.50;;;;;;;9.56;49.68;100510.06;5072583;28;20510;-64
2022/03/30 04:34:05;;;;;;;38.45;17.40;;;;;;;9.53;49.70;100515.66;5073045;28;20076;-64
2022/03/30 04:36:32;;;;;;;36.05;17.52;;;;;;;9.50;49.53;100521.25;5072900;28;20036;-64
2022/03/30 04:38:58;;;;;;;33.55;17.05;;;;;;;9.46;49.67;100518.88;5072945;28;20045;-64
2022/03/30 04:41:25;;;;;;;35.25;18.00;;;;;;;9.41;49.76;100510.31;5072930;28;20047;-64
2022/03/30 04:43:51;;;;;;;31.27;17.02;;;;;;;9.38;49.80;100516.75;5072753;28;20131;-65
2022/03/30 04:46:18;;;;;;;29.08;17.17;;;;;;;9.35;49.76;100521.47;5055157;28;20044;-65
2022/03/30 04:48:45;;;;;;;31.75;18.85;;;;;;;9.30;49.84;100513.75;5072001;28;20028;-64
2022/03/30 04:51:12;;;;;;;35.90;17.70;;;;;;;9.27;49.88;100519.34;5072997;28;20048;-65
2022/03/30 04:53:38;;;;;;;38.53;19.55;;;;;;;9.22;49.89;100508.94;5072616;28;20375;-64
2022/03/30 04:56:05;;;;;;;32.25;17.58;;;;;;;9.19;49.91;100514.53;5072769;28;20029;-64
2022/03/30 04:58:32;;;;;;;31.55;17.40;;;;;;;9.16;49.99;100512.06;5075075;28;20429;-64
2022/03/30 05:00:59;;;;;;;34.83;16.77;;;;;;;9.13;50.07;100516.78;5058800;28;20055;-64
2022/03/30 05:03:25;;;;;;;33.83;18.42;;;;;;;9.12;50.00;100512.38;5076397;28;20427;-64
2022/03/30 05:05:52;;;;;;;31.85;18.02;;;;;;;9.10;50.02;100523.22;5076396;28;20036;-64
2022/03/30 05:08:19;;;;;;;36.08;16.92;;;;;;;9.08;50.15;100514.44;5076215;28;20044;-64
2022/03/30 05:10:46;;;;;;;31.50;17.60;;;;;;;9.06;50.23;100521.72;5076457;28;20525;-64
2022/03/30 05:13:13;;;;;;;31.98;16.83;;;;;;;9.05;50.16;100521.81;5076393;28;20389;-64
2022/03/30 05:15:40;;;;;;;33.00;16.67;;;;;;;9.02;50.17;100516.69;5076313;28;20044;-65
2022/03/30 05:18:06;;;;;;;31.10;16.33;;;;;;;8.99;50.10;100525.78;5076027;28;20060;-64
2022/03/30 05:20:33;;;;;;;34.83;17.73;;;;;;;8.96;50.19;100517.09;5075685;28;20120;-64
2022/03/30 05:23:02;;;;;;;28.42;16.98;;;;;;;8.94;50.09;100527.06;5076125;28;20041;-65
2022/03/30 05:25:29;;;;;;;31.00;17.85;;;;;;;8.90;50.05;100515.69;5058199;28;20036;-64
2022/03/30 05:27:56;;;;;;;35.42;16.90;;;;;;;8.86;50.04;100517.72;5076089;28;20120;-63
2022/03/30 05:30:22;;;;;;;28.00;16.42;;;;;;;8.83;50.04;100511.72;5075957;28;20044;-64
2022/03/30 05:32:50;;;;;;;33.83;17.88;;;;;;;8.81;50.05;100519.00;5076034;28;20040;-64
2022/03/30 05:35:16;;;;;;;30.67;18.55;;;;;;;8.79;50.08;100513.75;5075918;28;20048;-64
2022/03/30 05:37:48;;;;;;;33.03;18.52;;;;;;;8.78;50.19;100514.72;5075347;28;20043;-63
2022/03/30 05:40:16;;;;;;;36.13;17.92;;;;;;;8.76;50.25;100518.47;5075758;28;20048;-64
2022/03/30 05:42:43;;;;;;;35.30;17.48;;;;;;;8.74;50.15;100507.84;5057985;28;20040;-63
2022/03/30 05:45:10;;;;;;;35.25;17.65;;;;;;;8.74;50.31;100505.16;5075856;28;20045;-64
2022/03/30 05:47:37;;;;;;;34.33;18.33;;;;;;;8.73;50.25;100492.75;5075943;28;20041;-64
2022/03/30 05:50:07;;;;;;;33.33;17.90;;;;;;;8.73;50.45;100495.44;5075252;28;20048;-65
2022/03/30 05:52:33;;;;;;;37.47;18.05;;;;;;;8.74;50.42;100493.59;5075462;28;20040;-66
2022/03/30 05:55:01;;;;;;;30.98;17.67;;;;;;;8.75;50.43;100498.00;5075818;28;20051;-65
2022/03/30 05:57:27;;;;;;;34.72;17.85;;;;;;;8.78;50.53;100500.47;5057430;28;20608;-64
2022/03/30 05:59:54;;;;;;;36.95;19.13;;;;;;;8.75;50.38;100496.19;5075675;28;20037;-64
2022/03/30 06:02:20;;;;;;;39.78;18.80;;;;;;;8.74;50.62;100502.50;5056913;28;20037;-64
2022/03/30 06:04:50;;;;;;;36.25;18.13;;;;;;;8.74;50.70;100490.94;5074548;28;20041;-63
2022/03/30 06:07:17;;;;;;;38.13;19.98;;;;;;;8.73;50.69;100495.44;5074829;28;20478;-64
2022/03/30 06:09:44;;;;;;;36.47;18.13;;;;;;;8.72;50.78;100493.72;5056759;28;20032;-65
2022/03/30 06:12:15;;;;;;;38.08;18.40;;;;;;;8.73;50.80;100500.78;5070020;28;20047;-64
2022/03/30 06:14:42;;;;;;;39.40;18.35;;;;;;;8.74;50.68;100509.66;5051785;28;20041;-65
2022/03/30 06:17:10;;;;;;;37.90;18.95;;;;;;;8.76;51.13;100500.56;5074914;28;20073;-64
2022/03/30 06:19:41;;;;;;;41.65;18.88;;;;;;;8.81;51.09;100506.47;5074269;28;20037;-64
2022/03/30 06:22:08;;;;;;;34.35;18.80;;;;;;;8.84;51.16;100508.94;5074914;28;20052;-65
2022/03/30 06:24:37;;;;;;;33.53;18.02;;;;;;;8.87;51.29;100516.75;5057725;28;20040;-65
2022/03/30 06:27:06;;;;;;;40.00;18.92;;;;;;;8.91;51.56;100514.72;5074122;28;20379;-65
2022/03/30 06:29:33;;;;;;;37.60;19.48;;;;;;;8.96;51.33;100509.06;5074802;28;20079;-63
2022/03/30 06:32:00;;;;;;;37.00;18.55;;;;;;;9.00;51.44;100510.56;5075136;28;20067;-63
2022/03/30 06:34:27;;;;;;;34.65;19.10;;;;;;;9.04;51.44;100514.75;5074941;28;20041;-65
2022/03/30 06:36:54;;;;;;;35.78;18.65;;;;;;;9.11;51.56;100510.69;5074782;28;20049;-65
2022/03/30 06:39:20;;;;;;;41.70;19.95;;;;;;;9.18;51.43;100512.81;5056617;28;20048;-64
2022/03/30 06:41:48;;;;;;;41.35;18.90;;;;;;;9.26;51.46;100508.72;5056863;28;20044;-66
2022/03/30 06:44:16;;;;;;;42.67;19.15;;;;;;;9.33;51.56;100518.91;5074101;28;20037;-64
2022/03/30 06:46:44;;;;;;;37.97;18.05;;;;;;;9.38;51.62;100514.06;5074566;28;20094;-66
2022/03/30 06:49:11;;;;;;;34.58;17.95;;;;;;;9.47;51.73;100512.56;5055340;28;20048;-66
2022/03/30 06:51:38;;;;;;;29.40;16.75;;;;;;;9.52;51.69;100508.59;5056933;28;20044;-64
2022/03/30 06:54:05;;;;;;;34.60;17.55;;;;;;;9.56;51.65;100515.44;5074326;28;20041;-66
2022/03/30 06:56:33;;;;;;;32.55;19.30;;;;;;;9.62;51.65;100519.50;5057196;28;20063;-64
2022/03/30 06:58:59;;;;;;;34.28;17.63;;;;;;;9.68;51.86;100512.88;5074309;28;20044;-64
2022/03/30 07:01:32;;;;;;;27.98;16.58;;;;;;;9.78;51.90;100519.28;5074303;28;20052;-65
2022/03/30 07:03:59;;;;;;;35.13;18.00;;;;;;;9.88;51.89;100520.31;5074343;28;20458;-65
2022/03/30 07:06:26;;;;;;;33.28;16.52;;;;;;;9.97;51.83;100516.09;5074208;28;20047;-64
2022/03/30 07:11:38;;;;;;;31.00;17.80;;;;;;;10.17;51.78;100520.84;5073015;28;20048;-65
2022/03/30 07:14:04;;;;;;;32.83;15.63;;;;;;;10.28;51.83;100512.88;5074043;28;20037;-65
2022/03/30 07:16:31;;;;;;;32.22;17.10;;;;;;;10.39;51.82;100517.44;5056451;28;20051;-65
2022/03/30 07:18:59;;;;;;;35.30;16.30;;;;;;;10.53;51.72;100511.91;5073858;28;20048;-65
2022/03/30 07:21:25;;;;;;;31.80;16.00;;;;;;;10.67;51.66;100509.00;5073203;28;20045;-64
2022/03/30 07:23:52;;;;;;;36.45;16.38;;;;;;;10.81;51.58;100499.88;5073875;28;20500;-64
2022/03/30 07:26:19;;;;;;;31.05;15.63;;;;;;;10.95;51.57;100504.19;5073831;28;20044;-65
2022/03/30 07:28:49;;;;;;;30.00;15.52;;;;;;;11.13;51.42;100505.44;5073786;28;20044;-66
2022/03/30 07:31:16;;;;;;;29.02;16.35;;;;;;;11.29;51.36;100505.09;5056197;28;20040;-65
2022/03/30 07:33:43;;;;;;;25.92;15.63;;;;;;;11.43;51.17;100516.47;5073827;28;20543;-66
2022/03/30 07:36:09;;;;;;;29.92;15.88;;;;;;;11.55;51.03;100500.34;5073476;28;20455;-65
2022/03/30 07:38:36;;;;;;;29.50;15.95;;;;;;;11.63;51.00;100495.19;5073438;28;20033;-64
2022/03/30 07:41:03;;;;;;;32.05;15.77;;;;;;;11.70;50.94;100496.41;5073622;28;20517;-65
2022/03/30 07:43:30;;;;;;;30.15;15.82;;;;;;;11.81;50.88;100493.72;5073636;28;20119;-65
2022/03/30 07:45:57;;;;;;;25.58;15.77;;;;;;;11.90;50.79;100493.00;5073412;28;20045;-65
2022/03/30 07:48:24;;;;;;;26.70;14.95;;;;;;;12.01;50.70;100497.50;5072973;28;20047;-64
2022/03/30 07:50:50;;;;;;;29.40;15.63;;;;;;;12.14;50.68;100494.63;5073400;28;20044;-65
2022/03/30 07:53:17;;;;;;;27.77;15.95;;;;;;;12.29;50.67;100496.91;5073502;28;20090;-65
2022/03/30 07:55:43;;;;;;;28.63;15.15;;;;;;;12.44;50.41;100499.28;5073221;28;20045;-65
2022/03/30 07:58:11;;;;;;;31.35;14.32;;;;;;;12.59;50.27;100496.16;5072759;28;20410;-65
2022/03/30 08:00:38;;;;;;;25.33;14.00;;;;;;;12.75;50.15;100500.25;5073722;28;20404;-65
2022/03/30 08:03:05;;;;;;;26.13;13.82;;;;;;;12.87;49.99;100502.75;5073256;28;20044;-65
2022/03/30 08:05:32;;;;;;;25.42;13.15;;;;;;;13.01;49.93;100499.72;5073145;28;20036;-64
2022/03/30 08:08:00;;;;;;;23.48;13.30;;;;;;;13.13;49.61;100497.78;5073164;28;20049;-65
2022/03/30 08:10:30;;;;;;;24.33;12.93;;;;;;;13.21;49.41;100492.63;5073344;28;20422;-65
2022/03/30 08:12:57;;;;;;;24.67;12.45;;;;;;;13.26;49.02;100498.47;5073430;28;20083;-64
2022/03/30 08:15:24;;;;;;;23.65;13.10;;;;;;;13.34;48.97;100500.50;5073254;28;20048;-64
2022/03/30 08:17:51;;;;;;;24.95;12.70;;;;;;;13.45;48.92;100494.19;5073088;28;20056;-63
2022/03/30 08:23:10;;;;;;;20.23;12.13;;;;;;;13.70;48.68;100499.09;5073248;28;20047;-64
2022/03/30 08:25:38;;;;;;;20.15;11.60;;;;;;;13.83;48.30;100496.13;5071815;28;20094;-64
2022/03/30 08:28:05;;;;;;;19.98;12.00;;;;;;;13.99;48.16;100494.59;5072644;28;20555;-64
2022/03/30 08:30:32;;;;;;;22.80;12.45;;;;;;;14.12;47.96;100497.06;5055396;28;20036;-64
2022/03/30 08:33:00;;;;;;;20.98;11.43;;;;;;;14.21;47.51;100493.53;5075023;28;20040;-64
2022/03/30 08:35:27;;;;;;;23.90;12.85;;;;;;;14.30;47.23;100489.97;5076711;28;20067;-63
2022/03/30 08:37:54;;;;;;;21.00;11.70;;;;;;;14.39;46.96;100490.13;5076747;28;20116;-64
2022/03/30 08:40:21;;;;;;;19.77;12.18;;;;;;;14.45;46.88;100485.03;5081259;28;20044;-64
2022/03/30 08:42:48;;;;;;;17.90;11.85;;;;;;;14.49;46.73;100488.31;5078789;28;20166;-65
2022/03/30 08:45:18;;;;;;;22.55;12.60;;;;;;;14.54;46.81;100483.31;5077009;28;20041;-64
2022/03/30 08:47:46;;;;;;;23.65;12.18;;;;;;;14.57;46.86;100486.59;5076912;28;20047;-65
2022/03/30 08:50:13;;;;;;;24.35;12.43;;;;;;;14.63;46.46;100483.31;5058993;28;20582;-65
2022/03/30 08:52:42;;;;;;;22.85;12.50;;;;;;;14.68;46.29;100480.19;5059339;28;20040;-64
2022/03/30 08:55:08;;;;;;;23.65;12.40;;;;;;;14.75;46.35;100484.00;5054593;28;20053;-65
2022/03/30 08:57:35;;;;;;;20.38;12.60;;;;;;;14.81;46.38;100478.03;5038865;28;20410;-65
2022/03/30 09:00:07;;;;;;;18.38;12.23;;;;;;;14.91;46.30;100478.88;5038751;28;20040;-65
2022/03/30 09:03:00;;;;;;;21.88;12.80;;;;;;;15.04;46.15;100478.56;5056584;28;20067;-65
2022/03/30 09:05:30;;;;;;;23.52;11.95;;;;;;;15.13;45.85;100480.41;5055852;28;20572;-64
2022/03/30 09:08:10;;;;;;;20.40;12.48;;;;;;;15.21;45.85;100475.09;5056713;28;20055;-66
2022/03/30 09:10:38;;;;;;;21.33;12.40;;;;;;;15.31;45.60;100480.47;5056438;28;20040;-65
2022/03/30 09:13:06;;;;;;;18.08;11.02;;;;;;;15.40;45.66;100474.16;5056609;28;20041;-65
2022/03/30 09:15:35;;;;;;;19.50;11.60;;;;;;;15.50;45.28;100471.41;5056325;28;20084;-66
2022/03/30 09:18:05;;;;;;;27.90;12.35;;;;;;;15.59;45.47;100475.97;5056166;28;20041;-65
2022/03/30 09:20:36;;;;;;;26.00;13.02;;;;;;;15.65;45.12;100475.41;5055151;28;20393;-65
2022/03/30 09:23:04;;;;;;;17.65;11.93;;;;;;;15.72;45.03;100475.63;5056338;28;20036;-64
2022/03/30 09:25:49;;;;;;;25.97;12.70;;;;;;;15.79;44.72;100474.03;5055964;28;20041;-64
2022/03/30 09:28:17;;;;;;;23.92;11.70;;;;;;;15.86;44.51;100473.28;5056133;28;20037;-64
2022/03/30 09:30:45;;;;;;;25.15;12.60;;;;;;;15.95;44.76;100470.66;5056502;28;20451;-65
2022/03/30 09:33:17;;;;;;;22.17;11.77;;;;;;;15.98;44.51;100473.91;5038305;28;20041;-65
2022/03/30 09:35:43;;;;;;;20.33;12.23;;;;;;;15.98;44.31;100465.78;5055854;28;20394;-65
2022/03/30 09:38:22;;;;;;;20.13;11.82;;;;;;;15.96;44.08;100459.66;5055749;28;20041;-66
2022/03/30 09:41:04;;;;;;;19.00;11.52;;;;;;;15.92;43.80;100462.84;5056177;28;20124;-65
2022/03/30 09:43:34;;;;;;;21.40;12.40;;;;;;;15.85;43.97;100463.44;5055548;28;20421;-66
2022/03/30 09:46:18;;;;;;;21.95;11.68;;;;;;;15.82;43.59;100457.47;5055509;28;20033;-66
2022/03/30 09:48:50;;;;;;;21.37;11.60;;;;;;;15.89;43.60;100448.59;5035476;28;20045;-66
2022/03/30 09:51:18;;;;;;;21.20;12.88;;;;;;;16.03;43.74;100443.66;5037877;28;20045;-66
2022/03/30 09:53:46;;;;;;;19.02;11.45;;;;;;;16.16;43.70;100446.84;5055836;28;20124;-66
2022/03/30 09:56:18;;;;;;;18.70;11.73;;;;;;;16.24;43.66;100441.50;5074814;28;20056;-65
2022/03/30 09:58:45;;;;;;;18.10;11.38;;;;;;;16.28;43.60;100440.16;5075573;28;20044;-66
2022/03/30 10:01:19;;;;;;;19.98;11.48;;;;;;;16.37;43.52;100447.41;5075587;28;20500;-66
2022/03/30 10:03:50;;;;;;;19.73;11.77;;;;;;;16.39;43.31;100439.97;5075987;28;20080;-65
2022/03/30 10:06:27;;;;;;;19.30;11.35;;;;;;;16.37;42.78;100441.13;5075264;28;20040;-66
2022/03/30 10:09:00;;;;;;;19.63;12.30;;;;;;;16.34;42.78;100436.00;5058375;28;20505;-65
2022/03/30 10:11:28;;;;;;;19.98;12.32;;;;;;;16.29;42.67;100431.03;5075813;28;20051;-65
2022/03/30 10:13:57;;;;;;;24.95;12.15;;;;;;;16.32;42.65;100432.59;5075448;28;20048;-65
2022/03/30 10:16:38;;;;;;;19.00;11.40;;;;;;;16.40;42.32;100424.56;5075403;28;20055;-65
2022/03/30 10:19:06;;;;;;;19.15;11.70;;;;;;;16.53;42.43;100430.41;5074846;28;20041;-66
2022/03/30 10:21:49;;;;;;;20.58;12.65;;;;;;;16.69;42.31;100427.00;5074905;28;20040;-64
2022/03/30 10:24:37;;;;;;;22.52;12.57;;;;;;;16.78;42.36;100421.47;5073538;28;20581;-64
2022/03/30 10:27:23;;;;;;;21.83;11.82;;;;;;;16.85;42.28;100418.97;5075416;28;20044;-65
2022/03/30 10:29:58;;;;;;;19.83;12.17;;;;;;;16.94;42.31;100423.44;5059609;28;20033;-65
2022/03/30 10:32:27;;;;;;;18.90;11.25;;;;;;;16.98;42.38;100422.13;5075117;28;20774;-65
2022/03/30 10:34:56;;;;;;;57.83;51.20;;;;;;;17.07;41.84;100429.28;5074876;28;20041;-62
2022/03/30 10:37:28;;;;;;;18.02;11.88;;;;;;;17.15;41.80;100420.38;5073922;28;20482;-63
2022/03/30 10:40:04;;;;;;;16.98;11.40;;;;;;;17.24;41.75;100413.97;5036902;28;20044;-63
2022/03/30 10:42:46;;;;;;;19.95;11.25;;;;;;;17.33;41.69;100401.28;5071088;28;20052;-63
2022/03/30 10:45:18;;;;;;;16.95;10.25;;;;;;;17.50;41.53;100405.75;5073511;28;20040;-64
2022/03/30 10:48:18;;;;;;;16.17;10.38;;;;;;;17.64;40.82;100404.28;5074748;28;20045;-63
2022/03/30 10:50:49;;;;;;;17.42;10.20;;;;;;;17.77;40.54;100407.41;5074196;28;20043;-63
2022/03/30 10:53:35;;;;;;;15.77;10.23;;;;;;;17.89;40.53;100402.53;5074604;28;20043;-63
2022/03/30 10:56:24;;;;;;;15.93;10.25;;;;;;;17.96;40.53;100403.56;5073398;28;20044;-63
2022/03/30 10:58:58;;;;;;;15.45;10.43;;;;;;;18.00;40.03;100394.91;5058764;28;20052;-63
2022/03/30 11:01:32;;;;;;;20.58;10.88;;;;;;;18.09;39.69;100387.63;5074346;28;20048;-63
2022/03/30 11:04:14;;;;;;;14.52;9.95;;;;;;;18.14;39.71;100374.38;5074107;28;20398;-63
2022/03/30 11:06:42;;;;;;;15.18;10.25;;;;;;;18.21;39.48;100379.97;5056198;28;20378;-63
2022/03/30 11:09:21;;;;;;;17.85;10.93;;;;;;;18.25;39.07;100375.91;5073756;28;20054;-63
2022/03/30 11:12:12;;;;;;;14.50;10.05;;;;;;;18.34;39.22;100369.44;5073612;28;20044;-63
2022/03/30 11:14:43;;;;;;;16.17;10.85;;;;;;;18.45;39.23;100369.09;5073936;28;20044;-63
2022/03/30 11:17:13;;;;;;;15.70;10.40;;;;;;;18.50;39.09;100365.84;5073372;28;20040;-63
2022/03/30 11:19:49;;;;;;;17.77;10.57;;;;;;;18.50;38.28;100365.84;5052469;28;20063;-63
2022/03/30 11:22:23;;;;;;;15.90;11.35;;;;;;;18.49;38.37;100356.00;5071582;28;20053;-64
2022/03/30 11:25:06;;;;;;;18.98;9.95;;;;;;;18.43;38.37;100346.66;5073522;28;20041;-62
2022/03/30 11:27:33;;;;;;;14.55;10.32;;;;;;;18.48;38.46;100346.16;5072911;28;20559;-64
2022/03/30 11:30:03;;;;;;;18.17;10.70;;;;;;;18.58;38.20;100346.81;5055833;28;20134;-63